Terminal Aerodrome Forecast
Issued by NWS Tuscon, AZ

Home | Current Version | Previous Version | Text Only | Print | Product List | Glossary On
Versions: 1 2 3 4 5 6 7 8 9 10 11 12 13 14 15 16
608
FTUS45 KTWC 221738
TAFDUG
TAF
KDUG 221738Z 2218/2318 16005KT P6SM FEW090
     FM221900 21006KT P6SM BKN090
     FM230300 16005KT P6SM SCT090
     FM230700 15008KT P6SM BKN090
     FM231600 23014G24KT P6SM BKN050 OVC080=

USA.gov is the U.S. government's official web portal to all federal, state and local government web resources and services.